SABE

Jorge Newbery Airpark Airport

Buenos Aires, Argentina
TAF SABE 122300Z 1300/1324 110015KT CAVOK TX24/1319Z TN16/1309Z BECMG 1306/1308 05015KT SCT030 BECMG 1311/1313 07020G30KT 5000 TSRA BKN015 FEW035CB OVC040 TEMPO 1312/1316 1500 +TSRA BECMG 1319/1321 7000 -RADZ SCT015 BKN030
Issued Valid From Valid To
Dec-12 @ 23:00 UTC
(3 hours ago)
Dec-13 @ 00:00 UTC
(2 hours ago)
Dec-14 @ 00:00 UTC
(in 22 hours)
Dec-13 @ 00:00 to Dec-13 @ 06:00
TAF SABE 122300Z 1300/1324 110015KT CAVOK TX24/1319Z TN16/1309Z
Wind Visibility Clouds
110° at 15 knots 10,000+ meters
  • No significant clouds
Becoming Dec-13 @ 06:00 to Dec-13 @ 11:00
BECMG 1306/1308 05015KT SCT030
Wind Visibility Clouds
50° at 15 knots 10,000+ meters
  • Scattered at 3,000' AGL
Becoming Dec-13 @ 11:00 to Dec-13 @ 19:00
BECMG 1311/1313 07020G30KT 5000 TSRA BKN015 FEW035CB OVC040
Wind Visibility Clouds Conditions
70° at 20 knots
 Gusting to 30 knots
5,005 meters
  • Broken at 1,500' AGL
  • Few at 3,500' AGL
  • Overcast at 4,000' AGL
  • Thunderstorm
  • Rain
Temporary Dec-13 @ 12:00 to Dec-13 @ 16:00
TEMPO 1312/1316 1500 +TSRA
Visibility Conditions
1,497 meters
  • Heavy Thunderstorm
  • Heavy Rain
Becoming Dec-13 @ 19:00 to Dec-14 @ 00:00
BECMG 1319/1321 7000 -RADZ SCT015 BKN030
Wind Visibility Clouds Conditions
70° at 20 knots
 Gusting to 30 knots
7,001 meters
  • Scattered at 1,500' AGL
  • Broken at 3,000' AGL
  • Light Rain
  • Light Drizzle
TAF SABE 122300Z 1300/1324 110015KT CAVOK TX24/1319Z TN16/1309Z BECMG 1306/1308 05015KT SCT030 BECMG 1311/1313 07020G30KT 5000 TSRA BKN015 FEW035CB OVC040 TEMPO 1312/1316 1500 +TSRA BECMG 1319/1321 7000 -RADZ SCT015 BKN030
Issued Dec-12 @ 23:00 UTC
(3 hours ago)
Valid From Dec-13 @ 00:00 UTC
(2 hours ago)
Valid To Dec-14 @ 00:00 UTC
(in 22 hours)
Dec-13 @ 00:00 - Dec-13 @ 06:00
Wind Visibility
110° at 15 knots 10,000+ meters
Clouds
  • No significant clouds
Becoming Dec-13 @ 06:00 - Dec-13 @ 11:00
Wind Visibility
50° at 15 knots 10,000+ meters
Clouds
  • Scattered at 3,000' AGL
Becoming Dec-13 @ 11:00 - Dec-13 @ 19:00
Wind Visibility
70° at 20 knots
 Gusting to 30 knots
5,005 meters
Clouds
  • Broken at 1,500' AGL
  • Few at 3,500' AGL
  • Overcast at 4,000' AGL
Conditions
  • Thunderstorm
  • Rain
Temporary Dec-13 @ 12:00 - Dec-13 @ 16:00
Conditions
  • Heavy Thunderstorm
  • Heavy Rain
Becoming Dec-13 @ 19:00 - Dec-14 @ 00:00
Wind Visibility
70° at 20 knots
 Gusting to 30 knots
7,001 meters
Clouds
  • Scattered at 1,500' AGL
  • Broken at 3,000' AGL
Conditions
  • Light Rain
  • Light Drizzle